sensor_id;sensor_type;location;lat;lon;timestamp;pressure;altitude;pressure_sealevel;temperature;humidity
69316;BME280;56445;43.552;5.034;2023-01-30T20:58:48;101814.03;;;14.17;30.96
69316;BME280;56445;43.552;5.034;2023-01-30T21:01:26;101806.31;;;17.28;27.34
69316;BME280;56445;43.552;5.034;2023-01-30T21:03:54;101792.53;;;18.73;25.93
69316;BME280;56445;43.552;5.034;2023-01-30T21:06:23;101821.94;;;19.70;25.02
69316;BME280;56445;43.552;5.034;2023-01-30T21:09:15;101828.50;;;20.32;24.82
69316;BME280;56445;43.552;5.034;2023-01-30T21:11:44;101774.47;;;20.44;24.47
69316;BME280;56445;43.552;5.034;2023-01-30T21:14:12;101805.50;;;20.84;24.29
69316;BME280;56445;43.552;5.034;2023-01-30T21:16:42;101818.91;;;21.02;24.24
69316;BME280;56445;43.552;5.034;2023-01-30T21:19:11;101805.56;;;21.11;23.91
69316;BME280;56445;43.552;5.034;2023-01-30T21:22:03;101798.94;;;21.29;24.10
69316;BME280;56445;43.552;5.034;2023-01-30T21:24:35;101797.84;;;21.30;23.78
69316;BME280;56445;43.552;5.034;2023-01-30T21:27:07;101799.53;;;21.31;23.88
69316;BME280;56445;43.552;5.034;2023-01-30T21:29:38;101836.53;;;21.50;23.87
69316;BME280;56445;43.552;5.034;2023-01-30T21:32:06;101852.19;;;21.50;23.73
69316;BME280;56445;43.552;5.034;2023-01-30T21:34:33;101866.16;;;21.48;23.58
69316;BME280;56445;43.552;5.034;2023-01-30T21:37:00;101852.28;;;21.38;23.80
69316;BME280;56445;43.552;5.034;2023-01-30T21:39:46;101853.41;;;21.37;23.73
69316;BME280;56445;43.552;5.034;2023-01-30T21:42:32;101867.16;;;21.42;23.59
69316;BME280;56445;43.552;5.034;2023-01-30T21:45:17;101852.28;;;21.38;23.75
69316;BME280;56445;43.552;5.034;2023-01-30T21:47:51;101888.13;;;21.48;23.53
69316;BME280;56445;43.552;5.034;2023-01-30T21:50:26;101823.44;;;21.35;23.46
69316;BME280;56445;43.552;5.034;2023-01-30T21:53:13;101851.69;;;21.53;23.48
69316;BME280;56445;43.552;5.034;2023-01-30T21:55:44;101862.44;;;21.54;23.73
69316;BME280;56445;43.552;5.034;2023-01-30T21:58:30;101843.78;;;21.56;23.63
69316;BME280;56445;43.552;5.034;2023-01-30T22:01:06;101851.25;;;21.61;23.43
69316;BME280;56445;43.552;5.034;2023-01-30T22:03:34;101846.56;;;21.62;23.17
69316;BME280;56445;43.552;5.034;2023-01-30T22:06:02;101836.69;;;21.61;23.25
69316;BME280;56445;43.552;5.034;2023-01-30T22:08:29;101808.47;;;21.43;23.54
69316;BME280;56445;43.552;5.034;2023-01-30T22:11:26;101832.78;;;21.56;23.62
69316;BME280;56445;43.552;5.034;2023-01-30T22:13:56;101832.78;;;21.56;23.44
69316;BME280;56445;43.552;5.034;2023-01-30T22:16:28;101825.97;;;21.64;23.29
69316;BME280;56445;43.552;5.034;2023-01-30T22:19:16;101853.41;;;21.59;23.40
69316;BME280;56445;43.552;5.034;2023-01-30T22:21:43;101805.13;;;21.41;23.37
69316;BME280;56445;43.552;5.034;2023-01-30T22:24:10;101806.44;;;21.38;23.30
69316;BME280;56445;43.552;5.034;2023-01-30T22:26:41;101852.50;;;21.53;23.29
69316;BME280;56445;43.552;5.034;2023-01-30T22:29:08;101864.31;;;21.54;23.25
69316;BME280;56445;43.552;5.034;2023-01-30T22:31:36;101837.06;;;21.47;23.24
69316;BME280;56445;43.552;5.034;2023-01-30T22:34:06;101854.69;;;21.51;23.40
69316;BME280;56445;43.552;5.034;2023-01-30T22:36:44;101860.75;;;21.53;23.17
69316;BME280;56445;43.552;5.034;2023-01-30T22:39:11;101858.78;;;21.49;23.41
69316;BME280;56445;43.552;5.034;2023-01-30T22:41:39;101852.50;;;21.53;23.03
69316;BME280;56445;43.552;5.034;2023-01-30T22:44:09;101838.44;;;21.45;23.23
69316;BME280;56445;43.552;5.034;2023-01-30T22:46:38;101845.66;;;21.56;23.14
69316;BME280;56445;43.552;5.034;2023-01-30T22:49:07;101823.25;;;21.42;23.28
69316;BME280;56445;43.552;5.034;2023-01-30T22:51:39;101859.72;;;21.59;23.30
69316;BME280;56445;43.552;5.034;2023-01-30T22:54:14;101877.31;;;21.58;23.26
69316;BME280;56445;43.552;5.034;2023-01-30T22:57:08;101871.16;;;21.51;23.31
69316;BME280;56445;43.552;5.034;2023-01-30T22:59:44;101854.94;;;21.50;23.17
69316;BME280;56445;43.552;5.034;2023-01-30T23:02:11;101851.53;;;21.43;23.25
69316;BME280;56445;43.552;5.034;2023-01-30T23:04:39;101836.81;;;21.49;23.33
69316;BME280;56445;43.552;5.034;2023-01-30T23:07:06;101824.97;;;21.48;23.43
69316;BME280;56445;43.552;5.034;2023-01-30T23:09:34;101821.66;;;21.46;23.26
69316;BME280;56445;43.552;5.034;2023-01-30T23:12:02;101828.69;;;21.59;23.51
69316;BME280;56445;43.552;5.034;2023-01-30T23:14:48;101823.84;;;21.44;23.22
69316;BME280;56445;43.552;5.034;2023-01-30T23:17:15;101791.53;;;21.29;23.36
69316;BME280;56445;43.552;5.034;2023-01-30T23:20:02;101819.31;;;21.33;23.34
69316;BME280;56445;43.552;5.034;2023-01-30T23:22:29;101799.00;;;21.34;23.57
69316;BME280;56445;43.552;5.034;2023-01-30T23:24:57;101849.19;;;21.51;23.69
69316;BME280;56445;43.552;5.034;2023-01-30T23:27:24;101853.34;;;21.54;23.61
69316;BME280;56445;43.552;5.034;2023-01-30T23:29:51;101857.69;;;21.50;23.37
69316;BME280;56445;43.552;5.034;2023-01-30T23:32:19;101858.91;;;21.59;23.42
69316;BME280;56445;43.552;5.034;2023-01-30T23:34:47;101861.22;;;21.45;23.08
69316;BME280;56445;43.552;5.034;2023-01-30T23:37:14;101846.44;;;21.51;23.37
69316;BME280;56445;43.552;5.034;2023-01-30T23:39:42;101857.22;;;21.58;23.25
69316;BME280;56445;43.552;5.034;2023-01-30T23:42:10;101833.22;;;21.48;23.23
69316;BME280;56445;43.552;5.034;2023-01-30T23:44:37;101848.09;;;21.52;23.35
69316;BME280;56445;43.552;5.034;2023-01-30T23:47:05;101833.88;;;21.55;23.21
69316;BME280;56445;43.552;5.034;2023-01-30T23:49:33;101845.34;;;21.52;23.26
69316;BME280;56445;43.552;5.034;2023-01-30T23:52:00;101831.91;;;21.51;23.41
69316;BME280;56445;43.552;5.034;2023-01-30T23:54:28;101826.97;;;21.53;23.37
69316;BME280;56445;43.552;5.034;2023-01-30T23:56:55;101842.19;;;21.61;23.29
69316;BME280;56445;43.552;5.034;2023-01-30T23:59:22;101815.75;;;21.54;23.20
